This is the latest recevied weather packets stored in our database for station/object CT7BNL-13. If no packets are shown the sender has not sent any weather packets the latest 10 day(s).
| Time | Temp. | Humidity | Pressure | Rain* | Wind** | Luminosity | Snow |
|---|---|---|---|---|---|---|---|
| 1788113965 | 22.78° C | 61% | 1026.6 hPa | 0 mm | - | 52 W/m² | - |
| 1788113068 | 23.33° C | 58% | 1026.6 hPa | 0 mm | - | 79 W/m² | - |
| 1788112165 | 23.89° C | 55% | 1026.3 hPa | 0 mm | - | 115 W/m² | - |
| 1788111264 | 24.44° C | 52% | 1026.5 hPa | 0 mm | - | 159 W/m² | - |
| 1788110365 | 25° C | 51% | 1026.4 hPa | 0 mm | - | 208 W/m² | - |
| 1788109466 | 25° C | 50% | 1026.5 hPa | 0 mm | - | 261 W/m² | - |
| 1788108565 | 26.11° C | 47% | 1026.2 hPa | 0 mm | - | 314 W/m² | - |
| 1788107665 | 25.56° C | 47% | 1026.4 hPa | 0 mm | - | 366 W/m² | - |
| 1788106765 | 26.11° C | 46% | 1026.3 hPa | 0 mm | - | 417 W/m² | - |
| 1788105865 | 26.11° C | 48% | 1026.2 hPa | 0 mm | - | 466 W/m² | - |
| 1788104965 | 25.56° C | 49% | 1026.5 hPa | 0 mm | - | 512 W/m² | - |
| 1788104065 | 26.11° C | 46% | 1026.7 hPa | 0 mm | - | 558 W/m² | - |
| 1788103167 | 26.11° C | 49% | 1026.3 hPa | 0 mm | - | 599 W/m² | - |
| 1788102265 | 26.67° C | 49% | 1026.6 hPa | 0 mm | - | 637 W/m² | - |
| 1788101365 | 26.11° C | 48% | 1026.6 hPa | 0 mm | - | 674 W/m² | - |
| 1788099564 | 26.11° C | 52% | 1026.8 hPa | 0 mm | - | 735 W/m² | - |
| 1788098666 | 25.56° C | 56% | 1027 hPa | 0 mm | - | 760 W/m² | - |
| 1788097765 | 25.56° C | 56% | 1027.1 hPa | 0 mm | - | 723 W/m² | - |
| 1788096864 | 25.56° C | 56% | 1027 hPa | 0 mm | - | 799 W/m² | - |
| 1788095965 | 25° C | 59% | 1027.3 hPa | 0 mm | - | 820 W/m² | - |
| 1788095065 | 24.44° C | 58% | 1027.2 hPa | 0 mm | - | 824 W/m² | - |
| 1788094165 | 25° C | 61% | 1027.3 hPa | 0 mm | - | 845 W/m² | - |
| 1788093265 | 24.44° C | 64% | 1027.3 hPa | 0 mm | - | 881 W/m² | - |
| 1788092364 | 23.33° C | 66% | 1027.5 hPa | 0 mm | - | 873 W/m² | - |
| 1788091465 | 22.78° C | 69% | 1027.4 hPa | 0 mm | - | 195 W/m² | - |
* Rain latest hour (hover to see other rain measurements)
** Current wind speed in m/s (hover to see current wind gust speed)